createdAt,value
2022-12-22T00:00:05.102Z,11.32
2022-12-22T00:02:50.369Z,13.82
2022-12-22T00:05:42.256Z,9.20
2022-12-22T00:08:27.766Z,10.07
2022-12-22T00:11:13.363Z,8.90
2022-12-22T00:13:59.709Z,9.93
2022-12-22T00:16:49.943Z,13.68
2022-12-22T00:19:35.658Z,9.27
2022-12-22T00:22:25.730Z,10.00
2022-12-22T00:25:10.972Z,12.70
2022-12-22T00:27:56.446Z,13.38
2022-12-22T00:30:41.728Z,14.88
2022-12-22T00:33:28.429Z,8.88
2022-12-22T00:36:13.550Z,12.52
2022-12-22T00:38:59.039Z,13.40
2022-12-22T00:41:44.403Z,7.60
2022-12-22T00:44:29.945Z,8.50
2022-12-22T00:47:15.301Z,13.38
2022-12-22T00:50:00.677Z,9.85
2022-12-22T00:52:45.895Z,9.95
2022-12-22T00:55:36.196Z,11.50
2022-12-22T00:58:21.749Z,15.98
2022-12-22T01:01:07.038Z,14.77
2022-12-22T01:03:52.450Z,9.38
2022-12-22T01:06:37.680Z,11.43
2022-12-22T01:09:24.033Z,10.00
2022-12-22T01:12:09.316Z,7.10
2022-12-22T01:14:54.488Z,9.07
2022-12-22T01:17:39.744Z,8.75
2022-12-22T01:20:25.567Z,8.55
2022-12-22T01:23:11.079Z,10.55
2022-12-22T01:25:56.421Z,8.07
2022-12-22T01:28:41.830Z,9.75
2022-12-22T01:31:35.554Z,8.90
2022-12-22T01:34:20.946Z,14.60
2022-12-22T01:37:06.284Z,8.60
2022-12-22T01:39:51.444Z,11.88
2022-12-22T01:42:36.819Z,8.93
2022-12-22T01:45:36.456Z,7.22
2022-12-22T01:48:21.603Z,11.93
2022-12-22T01:51:06.930Z,9.55
2022-12-22T01:53:52.122Z,14.07
2022-12-22T01:56:37.229Z,11.25
2022-12-22T01:59:23.017Z,15.45
2022-12-22T02:02:08.521Z,11.18
2022-12-22T02:04:58.787Z,10.13
2022-12-22T02:08:02.958Z,11.55
2022-12-22T02:11:13.357Z,8.83
2022-12-22T02:14:30.360Z,8.20
2022-12-22T02:17:28.153Z,10.15
2022-12-22T02:20:46.468Z,10.43
2022-12-22T02:23:46.957Z,11.88
2022-12-22T02:26:47.635Z,10.38
2022-12-22T02:29:33.892Z,11.70
2022-12-22T02:32:19.103Z,8.68
2022-12-22T02:35:04.481Z,7.45
2022-12-22T02:38:14.462Z,13.40
2022-12-22T02:41:09.618Z,8.40
2022-12-22T02:44:09.661Z,14.80
2022-12-22T02:47:19.456Z,12.93
2022-12-22T02:50:15.416Z,8.25
2022-12-22T02:53:01.134Z,9.57
2022-12-22T02:55:46.822Z,12.27
2022-12-22T02:58:32.822Z,12.85
2022-12-22T03:01:17.935Z,8.38
2022-12-22T03:04:03.322Z,11.48
2022-12-22T03:06:48.667Z,11.50
2022-12-22T03:09:34.147Z,9.10
2022-12-22T03:12:19.701Z,9.75
2022-12-22T03:15:05.083Z,13.82
2022-12-22T03:17:50.730Z,22.30
2022-12-22T03:20:36.384Z,10.52
2022-12-22T03:23:24.922Z,11.75
2022-12-22T03:25:54.435Z,10.07
2022-12-22T03:28:22.621Z,10.80
2022-12-22T03:31:05.748Z,13.77
2022-12-22T03:33:32.474Z,7.93
2022-12-22T03:35:59.462Z,13.32
2022-12-22T03:38:26.447Z,9.80
2022-12-22T03:40:53.186Z,12.82
2022-12-22T03:43:38.398Z,8.60
2022-12-22T03:46:23.843Z,8.70
2022-12-22T03:49:09.295Z,12.85
2022-12-22T03:51:39.073Z,11.85
2022-12-22T03:54:05.844Z,7.68
2022-12-22T03:56:32.619Z,11.80
2022-12-22T03:58:59.425Z,17.23
2022-12-22T04:01:26.321Z,15.00
2022-12-22T04:03:53.139Z,14.57
2022-12-22T04:06:19.983Z,9.93
2022-12-22T04:08:46.835Z,15.43
2022-12-22T04:11:32.922Z,12.45
2022-12-22T04:13:59.687Z,13.45
2022-12-22T04:16:26.454Z,13.63
2022-12-22T04:18:53.355Z,13.77
2022-12-22T04:21:20.051Z,14.27
2022-12-22T04:23:46.748Z,14.35
2022-12-22T04:26:13.471Z,16.10
2022-12-22T04:28:40.235Z,17.65
2022-12-22T04:31:06.966Z,14.10
2022-12-22T04:33:33.716Z,11.45
2022-12-22T04:36:00.453Z,12.80
2022-12-22T04:38:27.141Z,17.65
2022-12-22T04:40:53.872Z,9.32
2022-12-22T04:43:20.613Z,14.60
2022-12-22T04:45:47.353Z,16.38
2022-12-22T04:48:16.787Z,12.85
2022-12-22T04:50:43.457Z,16.60
2022-12-22T04:53:10.201Z,12.88
2022-12-22T04:55:36.937Z,10.55
2022-12-22T04:58:03.666Z,13.48
2022-12-22T05:00:30.388Z,10.95
2022-12-22T05:02:57.386Z,12.95
2022-12-22T05:05:24.135Z,11.88
2022-12-22T05:07:50.827Z,13.70
2022-12-22T05:10:17.686Z,14.60
2022-12-22T05:12:56.439Z,10.00
2022-12-22T05:15:24.600Z,14.18
2022-12-22T05:17:51.357Z,8.77
2022-12-22T05:20:18.442Z,12.13
2022-12-22T05:22:45.195Z,12.43
2022-12-22T05:25:13.026Z,7.90
2022-12-22T05:27:39.752Z,10.20
2022-12-22T05:30:07.156Z,10.32
2022-12-22T05:32:34.185Z,11.23
2022-12-22T05:35:01.418Z,11.63
2022-12-22T05:37:28.298Z,10.13
2022-12-22T05:39:55.270Z,7.75
2022-12-22T05:42:36.975Z,14.25
2022-12-22T05:45:15.560Z,9.40
2022-12-22T05:47:46.583Z,10.57
2022-12-22T05:50:14.058Z,9.10
2022-12-22T05:52:41.512Z,15.25
2022-12-22T05:55:08.593Z,9.85
2022-12-22T05:57:35.381Z,11.98
2022-12-22T06:00:02.439Z,10.38
2022-12-22T06:02:29.309Z,10.52
2022-12-22T06:04:56.237Z,8.68
2022-12-22T06:07:22.968Z,10.82
2022-12-22T06:09:49.696Z,9.18
2022-12-22T06:12:16.402Z,14.45
2022-12-22T06:14:43.221Z,13.75
2022-12-22T06:17:09.968Z,11.20
2022-12-22T06:19:36.670Z,15.52
2022-12-22T06:22:03.410Z,11.02
2022-12-22T06:24:30.177Z,14.60
2022-12-22T06:26:56.995Z,10.27
2022-12-22T06:29:23.800Z,13.25
2022-12-22T06:31:50.507Z,20.95
2022-12-22T06:34:20.142Z,35.05
2022-12-22T06:36:47.197Z,79.47
2022-12-22T06:39:14.590Z,135.25
2022-12-22T06:42:01.743Z,102.78
2022-12-22T06:44:28.472Z,102.95
2022-12-22T06:46:55.369Z,119.13
2022-12-22T06:49:22.197Z,78.28
2022-12-22T06:51:49.158Z,110.18
2022-12-22T06:54:18.426Z,71.45
2022-12-22T06:56:49.314Z,51.03
2022-12-22T06:59:15.973Z,27.30
2022-12-22T07:01:42.802Z,38.08
2022-12-22T07:04:10.623Z,54.47
2022-12-22T07:06:37.592Z,40.10
2022-12-22T07:09:04.576Z,22.38
2022-12-22T07:11:31.486Z,12.15
2022-12-22T07:13:58.132Z,10.60
2022-12-22T07:16:25.075Z,6.70
2022-12-22T07:18:51.893Z,5.20
2022-12-22T07:21:19.065Z,7.85
2022-12-22T07:23:45.786Z,6.97
2022-12-22T07:26:12.688Z,6.13
2022-12-22T07:28:40.425Z,10.00
2022-12-22T07:31:07.609Z,5.55
2022-12-22T07:33:34.407Z,4.90
2022-12-22T07:36:20.174Z,5.43
2022-12-22T07:38:48.665Z,4.95
2022-12-22T07:41:35.013Z,4.65
2022-12-22T07:44:02.190Z,4.85
2022-12-22T07:46:30.759Z,7.28
2022-12-22T07:49:15.888Z,4.75
2022-12-22T07:51:42.803Z,6.07
2022-12-22T07:54:11.111Z,5.30
2022-12-22T07:56:38.237Z,5.55
2022-12-22T07:59:05.167Z,9.15
2022-12-22T08:01:32.012Z,5.07
2022-12-22T08:03:58.863Z,6.07
2022-12-22T08:06:25.636Z,5.18
2022-12-22T08:08:52.562Z,5.40
2022-12-22T08:11:19.272Z,5.25
2022-12-22T08:13:46.632Z,9.57
2022-12-22T08:16:13.662Z,6.40
2022-12-22T08:18:40.680Z,4.18
2022-12-22T08:21:07.911Z,5.00
2022-12-22T08:23:34.823Z,4.40
2022-12-22T08:26:15.175Z,6.45
2022-12-22T08:28:49.948Z,12.10
2022-12-22T08:31:17.243Z,11.35
2022-12-22T08:33:44.191Z,5.57
2022-12-22T08:36:10.989Z,4.97
2022-12-22T08:38:38.728Z,7.32
2022-12-22T08:41:05.685Z,4.00
2022-12-22T08:43:32.383Z,3.55
2022-12-22T08:45:59.202Z,5.28
2022-12-22T08:48:25.910Z,4.00
2022-12-22T08:50:52.672Z,5.82
2022-12-22T08:53:54.143Z,5.72
2022-12-22T08:56:06.306Z,3.90
2022-12-22T08:58:33.875Z,7.00
2022-12-22T09:01:00.730Z,5.53
2022-12-22T09:03:27.497Z,5.55
2022-12-22T09:06:01.229Z,6.20
2022-12-22T09:08:27.996Z,6.40
2022-12-22T09:10:54.780Z,4.10
2022-12-22T09:13:21.599Z,7.47
2022-12-22T09:15:48.366Z,5.13
2022-12-22T09:18:15.134Z,6.03
2022-12-22T09:20:42.179Z,6.18
2022-12-22T09:23:09.033Z,5.93
2022-12-22T09:25:36.210Z,5.15
2022-12-22T09:28:03.118Z,5.68
2022-12-22T09:30:29.832Z,4.20
2022-12-22T09:32:56.567Z,6.85
2022-12-22T09:35:23.288Z,8.35
2022-12-22T09:37:50.068Z,7.60
2022-12-22T09:40:16.895Z,6.65
2022-12-22T09:42:43.611Z,3.97
2022-12-22T09:45:16.987Z,5.57
2022-12-22T09:47:45.391Z,6.80
2022-12-22T09:50:15.634Z,6.38
2022-12-22T09:52:50.276Z,6.10
2022-12-22T09:55:26.347Z,5.82
2022-12-22T09:57:56.493Z,6.45
2022-12-22T10:00:27.674Z,3.55
2022-12-22T10:03:25.254Z,5.00
2022-12-22T10:06:05.763Z,7.57
2022-12-22T10:08:34.161Z,7.15
2022-12-22T10:11:00.941Z,5.00
2022-12-22T10:13:27.727Z,7.13
2022-12-22T10:15:55.825Z,6.80
2022-12-22T10:18:24.960Z,4.05
2022-12-22T10:21:14.400Z,5.22
2022-12-22T10:23:46.109Z,5.60
2022-12-22T10:26:28.027Z,7.68
2022-12-22T10:29:01.620Z,6.35
2022-12-22T10:31:29.893Z,6.88
2022-12-22T10:34:09.660Z,6.65
2022-12-22T10:36:36.876Z,9.68
2022-12-22T10:39:06.068Z,8.25
2022-12-22T10:41:36.790Z,10.00
2022-12-22T10:44:06.966Z,9.18
2022-12-22T10:46:39.614Z,11.48
2022-12-22T10:49:22.052Z,10.95
2022-12-22T10:51:53.886Z,18.60
2022-12-22T10:54:28.055Z,18.50
2022-12-22T10:57:12.951Z,12.23
2022-12-22T11:00:21.494Z,13.50
2022-12-22T11:02:51.746Z,17.88
2022-12-22T11:05:18.714Z,19.80
2022-12-22T11:07:46.917Z,20.80
2022-12-22T11:10:25.820Z,19.50
2022-12-22T11:13:02.877Z,17.40
2022-12-22T11:15:33.100Z,20.88
2022-12-22T11:18:16.379Z,20.23
2022-12-22T11:20:59.112Z,27.45
2022-12-22T11:23:29.463Z,27.40
2022-12-22T11:25:59.047Z,21.00
2022-12-22T11:28:50.767Z,22.98
2022-12-22T11:31:26.317Z,25.75
2022-12-22T11:33:57.552Z,16.70
2022-12-22T11:36:38.628Z,19.85
2022-12-22T11:39:15.395Z,22.05
2022-12-22T11:42:08.099Z,18.55
2022-12-22T11:44:46.345Z,12.48
2022-12-22T11:47:28.355Z,15.75
2022-12-22T11:51:01.104Z,16.23
2022-12-22T11:53:22.905Z,19.40
2022-12-22T11:56:01.731Z,19.88
2022-12-22T11:59:06.872Z,19.52
2022-12-22T12:01:39.711Z,11.45
2022-12-22T12:04:24.887Z,19.75
2022-12-22T12:06:58.657Z,12.07
2022-12-22T12:09:37.459Z,13.85
2022-12-22T12:12:13.223Z,7.45
2022-12-22T12:14:45.602Z,16.25
2022-12-22T12:17:22.135Z,13.38
2022-12-22T12:19:52.967Z,11.38
2022-12-22T12:22:45.209Z,12.20
2022-12-22T12:25:30.118Z,15.73
2022-12-22T12:28:18.579Z,14.75
2022-12-22T12:30:54.249Z,10.13
2022-12-22T12:33:26.932Z,15.02
2022-12-22T12:36:06.156Z,15.82
2022-12-22T12:39:20.780Z,13.68
2022-12-22T12:42:15.255Z,14.05
2022-12-22T12:47:34.935Z,14.40
2022-12-22T12:50:34.060Z,20.77
2022-12-22T12:53:07.443Z,13.98
2022-12-22T12:55:39.502Z,14.70
2022-12-22T12:58:10.421Z,25.55
2022-12-22T13:00:43.122Z,19.70
2022-12-22T13:06:51.125Z,22.75
2022-12-22T13:12:34.760Z,21.77
2022-12-22T13:15:01.920Z,12.50
2022-12-22T13:17:48.300Z,14.80
2022-12-22T13:20:16.423Z,28.80
2022-12-22T13:22:43.263Z,22.15
2022-12-22T13:25:19.140Z,25.13
2022-12-22T13:27:46.127Z,20.15
2022-12-22T13:30:19.641Z,18.20
2022-12-22T13:32:47.533Z,22.25
2022-12-22T13:35:39.878Z,18.50
2022-12-22T13:38:31.594Z,20.67
2022-12-22T13:40:59.884Z,11.70
2022-12-22T13:43:27.351Z,19.80
2022-12-22T13:45:57.935Z,22.17
2022-12-22T13:48:45.630Z,19.92
2022-12-22T13:51:29.323Z,21.27
2022-12-22T13:54:11.726Z,16.30
2022-12-22T13:56:42.249Z,19.15
2022-12-22T13:59:35.003Z,17.77
2022-12-22T14:02:20.800Z,16.88
2022-12-22T14:05:06.261Z,20.00
2022-12-22T14:07:33.104Z,22.10
2022-12-22T14:09:59.993Z,21.33
2022-12-22T14:12:29.244Z,24.52
2022-12-22T14:14:56.843Z,18.27
2022-12-22T14:17:28.807Z,19.80
2022-12-22T14:19:57.508Z,18.38
2022-12-22T14:22:37.808Z,13.65
2022-12-22T14:25:09.805Z,20.70
2022-12-22T14:27:39.020Z,19.48
2022-12-22T14:30:08.194Z,20.55
2022-12-22T14:32:39.367Z,9.40
2022-12-22T14:35:22.735Z,16.10
2022-12-22T14:37:54.552Z,25.07
2022-12-22T14:40:35.057Z,14.35
2022-12-22T14:43:08.051Z,16.88
2022-12-22T14:45:34.724Z,12.23
2022-12-22T14:48:01.531Z,16.98
2022-12-22T14:50:29.292Z,12.25
2022-12-22T14:52:59.676Z,24.05
2022-12-22T14:55:27.797Z,23.45
2022-12-22T14:58:13.427Z,22.45
2022-12-22T15:00:44.736Z,16.90
2022-12-22T15:03:34.241Z,21.25
2022-12-22T15:06:24.505Z,12.50
2022-12-22T15:08:53.386Z,16.83
2022-12-22T15:11:21.135Z,12.07
2022-12-22T15:13:48.475Z,17.45
2022-12-22T15:16:16.968Z,19.58
2022-12-22T15:18:43.672Z,18.27
2022-12-22T15:21:13.032Z,20.90
2022-12-22T15:23:40.152Z,13.65
2022-12-22T15:26:07.023Z,15.95
2022-12-22T15:28:33.853Z,13.73
2022-12-22T15:31:00.900Z,13.80
2022-12-22T15:33:27.677Z,15.52
2022-12-22T15:35:54.395Z,16.50
2022-12-22T15:38:25.091Z,14.85
2022-12-22T15:40:52.136Z,16.58
2022-12-22T15:46:06.243Z,18.05
2022-12-22T15:48:36.527Z,17.42
2022-12-22T15:51:04.379Z,16.08
2022-12-22T15:53:31.966Z,18.15
2022-12-22T15:55:58.986Z,19.30
2022-12-22T15:58:29.001Z,16.02
2022-12-22T16:00:55.810Z,26.13
2022-12-22T16:03:22.673Z,18.73
2022-12-22T16:05:49.592Z,16.45
2022-12-22T16:08:18.472Z,24.50
2022-12-22T16:10:45.305Z,19.95
2022-12-22T16:13:13.182Z,14.73
2022-12-22T16:15:40.226Z,18.20
2022-12-22T16:18:07.780Z,20.02
2022-12-22T16:20:39.336Z,25.40
2022-12-22T16:23:06.559Z,23.33
2022-12-22T16:25:38.866Z,20.83
2022-12-22T16:28:05.803Z,31.23
2022-12-22T16:30:33.352Z,25.52
2022-12-22T16:33:00.377Z,20.63
2022-12-22T16:35:29.073Z,25.05
2022-12-22T16:37:56.677Z,32.33
2022-12-22T16:40:23.424Z,34.70
2022-12-22T16:46:00.097Z,25.20
2022-12-22T16:48:34.666Z,40.58
2022-12-22T16:51:01.486Z,32.40
2022-12-22T16:53:29.084Z,34.28
2022-12-22T16:55:56.176Z,38.90
2022-12-22T16:58:22.942Z,27.92
2022-12-22T17:00:49.679Z,34.85
2022-12-22T17:03:19.633Z,26.73
2022-12-22T17:05:56.521Z,30.13
2022-12-22T17:08:28.267Z,36.75
2022-12-22T17:10:56.087Z,33.47
2022-12-22T17:13:22.906Z,32.40
2022-12-22T17:15:49.698Z,42.28
2022-12-22T17:18:16.984Z,34.42
2022-12-22T17:20:44.743Z,41.45
2022-12-22T17:23:28.876Z,38.35
2022-12-22T17:25:55.598Z,33.03
2022-12-22T17:28:22.314Z,40.80
2022-12-22T17:30:49.190Z,45.17
2022-12-22T17:33:16.431Z,36.47
2022-12-22T17:35:43.994Z,33.53
2022-12-22T17:38:17.839Z,32.85
2022-12-22T17:40:44.734Z,34.13
2022-12-22T17:43:16.118Z,35.92
2022-12-22T17:45:43.192Z,44.78
2022-12-22T17:48:10.786Z,34.38
2022-12-22T17:50:37.467Z,44.92
2022-12-22T17:53:05.352Z,42.20
2022-12-22T17:56:06.683Z,42.22
2022-12-22T17:58:19.108Z,37.63
2022-12-22T18:00:45.907Z,51.40
2022-12-22T18:03:14.749Z,36.83
2022-12-22T18:05:46.067Z,36.10
2022-12-22T18:08:15.427Z,24.15
2022-12-22T18:10:42.181Z,35.13
2022-12-22T18:13:19.906Z,46.83
2022-12-22T18:15:47.396Z,26.08
2022-12-22T18:18:15.169Z,37.13
2022-12-22T18:20:42.170Z,25.23
2022-12-22T18:23:16.713Z,27.45
2022-12-22T18:25:43.507Z,36.90
2022-12-22T18:28:14.623Z,35.25
2022-12-22T18:30:41.549Z,30.40
2022-12-22T18:33:08.450Z,31.88
2022-12-22T18:35:35.444Z,32.47
2022-12-22T18:38:02.190Z,30.98
2022-12-22T18:40:47.819Z,27.45
2022-12-22T18:43:14.636Z,29.30
2022-12-22T18:45:41.344Z,29.08
2022-12-22T18:48:10.082Z,32.65
2022-12-22T18:50:36.831Z,26.05
2022-12-22T18:53:16.631Z,36.40
2022-12-22T18:55:43.473Z,36.63
2022-12-22T18:58:10.562Z,25.63
2022-12-22T19:00:37.556Z,49.55
2022-12-22T19:03:12.272Z,27.90
2022-12-22T19:05:40.698Z,32.65
2022-12-22T19:08:10.819Z,28.20
2022-12-22T19:10:40.163Z,18.75
2022-12-22T19:13:09.030Z,26.83
2022-12-22T19:15:38.351Z,22.40
2022-12-22T19:18:05.916Z,31.40
2022-12-22T19:20:32.667Z,20.92
2022-12-22T19:23:00.591Z,27.40
2022-12-22T19:25:28.787Z,19.83
2022-12-22T19:27:56.236Z,34.47
2022-12-22T19:30:24.525Z,30.58
2022-12-22T19:32:53.935Z,29.45
2022-12-22T19:35:21.692Z,20.77
2022-12-22T19:37:50.075Z,25.00
2022-12-22T19:40:17.565Z,20.08
2022-12-22T19:42:45.131Z,14.10
2022-12-22T19:45:21.469Z,25.98
2022-12-22T19:47:48.994Z,34.40
2022-12-22T19:50:17.500Z,23.08
2022-12-22T19:52:44.322Z,27.08
2022-12-22T19:55:11.127Z,21.63
2022-12-22T19:57:41.319Z,18.40
2022-12-22T20:00:22.302Z,20.80
2022-12-22T20:02:50.481Z,17.38
2022-12-22T20:05:23.269Z,26.83
2022-12-22T20:07:55.040Z,34.28
2022-12-22T20:10:22.005Z,19.63
2022-12-22T20:12:51.450Z,25.33
2022-12-22T20:15:23.893Z,20.92
2022-12-22T20:17:51.415Z,22.25
2022-12-22T20:20:26.548Z,24.85
2022-12-22T20:22:55.190Z,19.40
2022-12-22T20:25:26.065Z,25.80
2022-12-22T20:27:54.796Z,21.33
2022-12-22T20:30:27.090Z,12.32
2022-12-22T20:32:54.553Z,16.83
2022-12-22T20:35:22.622Z,15.27
2022-12-22T20:37:49.878Z,19.05
2022-12-22T20:40:30.596Z,17.77
2022-12-22T20:42:57.473Z,26.92
2022-12-22T20:45:25.859Z,15.98
2022-12-22T20:47:52.680Z,25.13
2022-12-22T20:50:27.571Z,17.05
2022-12-22T20:52:54.838Z,15.52
2022-12-22T20:55:24.007Z,16.75
2022-12-22T20:57:50.932Z,13.70
2022-12-22T21:00:18.613Z,11.70
2022-12-22T21:02:45.520Z,15.52
2022-12-22T21:05:14.883Z,12.70
2022-12-22T21:07:45.669Z,9.18
2022-12-22T21:10:22.890Z,11.35
2022-12-22T21:12:50.050Z,9.38
2022-12-22T21:15:21.636Z,13.18
2022-12-22T21:17:52.793Z,13.90
2022-12-22T21:20:27.080Z,10.65
2022-12-22T21:22:53.853Z,6.82
2022-12-22T21:25:20.593Z,4.60
2022-12-22T21:27:48.470Z,5.97
2022-12-22T21:30:23.092Z,5.97
2022-12-22T21:32:49.957Z,9.15
2022-12-22T21:35:35.757Z,5.55
2022-12-22T21:38:02.592Z,7.97
2022-12-22T21:40:30.683Z,9.57
2022-12-22T21:42:58.079Z,9.77
2022-12-22T21:45:27.196Z,9.05
2022-12-22T21:47:53.909Z,12.73
2022-12-22T21:50:25.594Z,10.25
2022-12-22T21:52:52.427Z,9.35
2022-12-22T21:55:26.031Z,6.65
2022-12-22T21:57:52.941Z,5.57
2022-12-22T22:00:20.339Z,2.92
2022-12-22T22:02:47.380Z,3.30
2022-12-22T22:05:26.448Z,2.60
2022-12-22T22:07:53.282Z,3.03
2022-12-22T22:10:22.292Z,4.15
2022-12-22T22:12:49.894Z,2.25
2022-12-22T22:15:16.771Z,1.20
2022-12-22T22:17:43.738Z,3.50
2022-12-22T22:20:31.444Z,2.55
2022-12-22T22:22:58.650Z,2.60
2022-12-22T22:25:25.573Z,2.00
2022-12-22T22:27:52.345Z,6.32
2022-12-22T22:30:26.615Z,3.00
2022-12-22T22:32:53.910Z,1.80
2022-12-22T22:35:20.941Z,5.18
2022-12-22T22:37:51.087Z,5.97
2022-12-22T22:40:19.945Z,3.70
2022-12-22T22:42:46.786Z,2.90
2022-12-22T22:45:14.595Z,7.20
2022-12-22T22:47:41.326Z,3.75
2022-12-22T22:50:08.915Z,3.72
2022-12-22T22:52:37.633Z,4.55
2022-12-22T22:55:04.684Z,1.45
2022-12-22T22:57:31.537Z,5.10
2022-12-22T22:59:58.277Z,1.90
2022-12-22T23:02:25.325Z,1.60
2022-12-22T23:04:52.215Z,3.58
2022-12-22T23:07:18.939Z,4.00
2022-12-22T23:09:46.112Z,2.08
2022-12-22T23:12:13.215Z,2.42
2022-12-22T23:14:40.050Z,7.03
2022-12-22T23:17:06.886Z,4.18
2022-12-22T23:19:33.663Z,1.23
2022-12-22T23:22:00.396Z,2.83
2022-12-22T23:24:27.194Z,4.00
2022-12-22T23:26:53.875Z,1.88
2022-12-22T23:29:20.678Z,3.22
2022-12-22T23:31:47.567Z,2.47
2022-12-22T23:34:14.585Z,1.98
2022-12-22T23:36:41.307Z,2.13
2022-12-22T23:39:08.030Z,2.65
2022-12-22T23:41:34.887Z,2.78
2022-12-22T23:44:01.786Z,4.10
2022-12-22T23:46:28.774Z,3.47
2022-12-22T23:48:57.209Z,2.25
2022-12-22T23:51:25.336Z,2.50
2022-12-22T23:53:52.104Z,1.50
2022-12-22T23:56:22.302Z,1.65
2022-12-22T23:58:54.448Z,3.15
